Time;durP1;ratioP1;P1;durP2;ratioP2;P2;SDS_P1;SDS_P2;PMS_P1;PMS_P2;Temp;Humidity;BMP_temperature;BMP_pressure;BME280_temperature;BME280_humidity;BME280_pressure;Samples;Min_cycle;Max_cycle;Signal;HPM_P1;HPM_P2
2023/04/20 02:00:28;;;;;;;100.93;25.95;;;;;;;;;;4920360;27;20085;-74
2023/04/20 02:02:56;;;;;;;73.37;26.27;;;;;;;;;;4264562;33;20049;-75
2023/04/20 02:05:22;;;;;;;81.65;27.83;;;;;;;;;;4267662;33;20079;-73
2023/04/20 02:07:48;;;;;;;94.13;27.27;;;;;;;;;;4265915;33;20045;-72
2023/04/20 02:10:14;;;;;;;60.15;26.55;;;;;;;;;;4265673;33;20041;-73
2023/04/20 02:12:44;;;;;;;54.72;27.17;;;;;;;;;;4265685;33;20034;-72
2023/04/20 02:15:10;;;;;;;70.10;27.27;;;;;;;;;;4263066;33;20096;-72
2023/04/20 02:17:37;;;;;;;45.60;25.58;;;;;;;;;;4265302;33;20050;-71
2023/04/20 02:20:05;;;;;;;67.35;27.10;;;;;;;;;;4265109;33;20168;-73
2023/04/20 02:22:35;;;;;;;48.85;27.02;;;;;;;;;;4249846;33;20046;-72
2023/04/20 02:25:02;;;;;;;48.78;25.35;;;;;;;;;;4249705;33;20387;-72
2023/04/20 02:27:28;;;;;;;55.50;26.02;;;;;;;;;;4251330;33;20046;-72
2023/04/20 02:29:54;;;;;;;57.28;25.30;;;;;;;;;;4251041;33;20101;-73
2023/04/20 02:32:20;;;;;;;53.70;24.45;;;;;;;;;;4251092;33;20187;-73
2023/04/20 02:34:48;;;;;;;46.17;27.10;;;;;;;;;;4249824;33;20042;-74
2023/04/20 02:37:14;;;;;;;52.13;25.48;;;;;;;;;;4247601;33;20050;-72
2023/04/20 02:39:41;;;;;;;44.83;24.70;;;;;;;;;;4251277;33;20064;-72
2023/04/20 02:42:07;;;;;;;45.88;24.95;;;;;;;;;;4250968;33;20034;-73
2023/04/20 02:44:34;;;;;;;46.28;25.37;;;;;;;;;;4264791;33;20431;-74
2023/04/20 02:47:01;;;;;;;42.60;23.58;;;;;;;;;;4242429;33;20054;-78
2023/04/20 02:49:27;;;;;;;42.22;23.52;;;;;;;;;;4220097;33;20134;-73
2023/04/20 02:51:53;;;;;;;45.38;25.98;;;;;;;;;;4221889;33;20054;-73
2023/04/20 02:54:19;;;;;;;42.83;25.25;;;;;;;;;;4244421;33;20050;-74
2023/04/20 02:56:46;;;;;;;47.17;25.12;;;;;;;;;;4249787;33;20086;-72
2023/04/20 02:59:12;;;;;;;40.58;25.10;;;;;;;;;;4249411;33;20056;-74
2023/04/20 03:01:40;;;;;;;46.10;26.15;;;;;;;;;;4249375;33;20062;-74
2023/04/20 03:04:07;;;;;;;46.10;25.33;;;;;;;;;;4250383;33;20434;-73
2023/04/20 03:06:35;;;;;;;39.35;24.55;;;;;;;;;;4250304;33;20484;-73
2023/04/20 03:09:02;;;;;;;43.80;24.40;;;;;;;;;;4250532;33;20037;-72
2023/04/20 03:11:31;;;;;;;47.60;26.20;;;;;;;;;;4248948;33;20065;-73
2023/04/20 03:13:58;;;;;;;46.88;25.12;;;;;;;;;;4250187;33;20058;-72
2023/04/20 03:16:24;;;;;;;47.42;25.55;;;;;;;;;;4249975;33;20046;-72
2023/04/20 03:18:50;;;;;;;42.50;24.67;;;;;;;;;;4250249;33;20047;-72
2023/04/20 03:21:23;;;;;;;40.30;23.52;;;;;;;;;;4261727;33;20075;-79
2023/04/20 03:23:49;;;;;;;37.60;21.65;;;;;;;;;;4263733;33;20155;-72
2023/04/20 03:26:16;;;;;;;44.88;23.10;;;;;;;;;;4264670;33;20409;-73
2023/04/20 03:28:44;;;;;;;47.15;24.55;;;;;;;;;;4264764;33;20025;-74
2023/04/20 03:31:11;;;;;;;50.90;25.02;;;;;;;;;;4234686;33;20055;-72
2023/04/20 03:33:37;;;;;;;63.47;27.30;;;;;;;;;;4230558;33;20574;-78
2023/04/20 03:36:05;;;;;;;36.97;20.67;;;;;;;;;;4235982;33;20073;-72
2023/04/20 03:38:31;;;;;;;42.35;20.70;;;;;;;;;;4235075;33;20038;-73
2023/04/20 03:40:57;;;;;;;44.20;23.05;;;;;;;;;;4230542;33;20094;-72
2023/04/20 03:43:23;;;;;;;43.58;21.75;;;;;;;;;;4231669;33;20073;-74
2023/04/20 03:45:49;;;;;;;44.88;24.35;;;;;;;;;;4227263;33;20046;-73
2023/04/20 03:48:16;;;;;;;45.95;23.60;;;;;;;;;;4210835;34;20065;-73
2023/04/20 03:50:42;;;;;;;65.78;30.90;;;;;;;;;;4219566;33;20062;-74
2023/04/20 03:53:09;;;;;;;45.80;23.83;;;;;;;;;;4228832;33;20127;-74
2023/04/20 03:55:36;;;;;;;52.42;26.08;;;;;;;;;;4226169;33;20046;-78
2023/04/20 03:58:04;;;;;;;67.10;29.58;;;;;;;;;;4223184;33;20042;-73
2023/04/20 04:00:33;;;;;;;59.58;28.30;;;;;;;;;;4224057;34;20104;-75
2023/04/20 04:03:00;;;;;;;51.92;24.17;;;;;;;;;;4259486;33;20053;-72
2023/04/20 04:05:26;;;;;;;54.08;26.12;;;;;;;;;;4268203;33;20076;-72
2023/04/20 04:07:56;;;;;;;50.97;23.23;;;;;;;;;;4266436;33;20037;-73
2023/04/20 04:10:23;;;;;;;30.23;17.37;;;;;;;;;;4266123;33;20049;-73
2023/04/20 04:12:49;;;;;;;37.58;19.65;;;;;;;;;;4265158;33;20046;-73
2023/04/20 04:15:18;;;;;;;70.55;29.55;;;;;;;;;;4264249;33;20474;-72
2023/04/20 04:17:45;;;;;;;58.87;31.23;;;;;;;;;;4265675;33;20079;-79
2023/04/20 04:20:11;;;;;;;42.72;22.37;;;;;;;;;;4264762;33;20134;-73
2023/04/20 04:22:37;;;;;;;33.50;19.15;;;;;;;;;;4264280;33;20081;-72
2023/04/20 04:25:10;;;;;;;34.50;19.00;;;;;;;;;;4265967;33;20081;-71
2023/04/20 04:27:45;;;;;;;35.33;19.12;;;;;;;;;;4263706;33;20109;-78
2023/04/20 04:30:12;;;;;;;34.17;18.30;;;;;;;;;;4266212;33;20054;-73
2023/04/20 04:32:40;;;;;;;40.60;17.55;;;;;;;;;;4266256;33;20059;-74
2023/04/20 04:35:06;;;;;;;34.53;17.27;;;;;;;;;;4266413;33;20041;-75
2023/04/20 04:37:33;;;;;;;26.65;14.63;;;;;;;;;;4265547;33;20064;-73
2023/04/20 04:40:01;;;;;;;31.30;16.83;;;;;;;;;;4264776;33;20054;-73
2023/04/20 04:42:27;;;;;;;29.60;16.67;;;;;;;;;;4264990;33;20053;-74
2023/04/20 04:44:55;;;;;;;26.80;12.25;;;;;;;;;;4251522;33;20203;-72
2023/04/20 04:47:24;;;;;;;19.83;11.63;;;;;;;;;;4243160;33;20034;-71
2023/04/20 04:49:50;;;;;;;26.73;12.68;;;;;;;;;;4249909;33;20068;-77
2023/04/20 04:52:17;;;;;;;18.73;10.57;;;;;;;;;;4251643;33;20045;-73
2023/04/20 04:54:43;;;;;;;19.60;10.38;;;;;;;;;;4253869;33;20472;-73
2023/04/20 04:57:09;;;;;;;19.00;11.65;;;;;;;;;;4265357;33;20081;-73
2023/04/20 04:59:35;;;;;;;23.87;10.10;;;;;;;;;;4265665;33;20053;-72
2023/04/20 05:02:01;;;;;;;23.02;10.35;;;;;;;;;;4262559;33;20476;-73
2023/04/20 05:04:27;;;;;;;15.80;10.43;;;;;;;;;;4265604;33;20159;-73
2023/04/20 05:06:54;;;;;;;15.52;10.48;;;;;;;;;;4251975;33;20422;-73
2023/04/20 05:09:20;;;;;;;19.15;9.93;;;;;;;;;;4250732;33;20436;-73
2023/04/20 05:11:46;;;;;;;15.30;8.85;;;;;;;;;;4250488;33;20060;-73
2023/04/20 05:14:13;;;;;;;15.25;9.55;;;;;;;;;;4236306;33;20083;-72
2023/04/20 05:16:39;;;;;;;18.87;10.60;;;;;;;;;;4241407;33;20090;-74
2023/04/20 05:19:05;;;;;;;18.75;10.68;;;;;;;;;;4237524;33;20069;-72
2023/04/20 05:21:31;;;;;;;18.95;9.70;;;;;;;;;;4244843;33;20056;-73
2023/04/20 05:23:57;;;;;;;16.50;9.85;;;;;;;;;;4241004;33;20432;-72
2023/04/20 05:26:23;;;;;;;13.65;9.43;;;;;;;;;;4234083;33;20043;-74
2023/04/20 05:28:50;;;;;;;14.77;10.05;;;;;;;;;;4237085;33;21032;-72
2023/04/20 05:31:16;;;;;;;14.27;8.38;;;;;;;;;;4238864;33;20052;-73
2023/04/20 05:33:44;;;;;;;19.65;9.32;;;;;;;;;;4237261;33;20064;-73
2023/04/20 05:36:11;;;;;;;18.42;9.82;;;;;;;;;;4234821;33;20396;-77
2023/04/20 05:38:37;;;;;;;20.12;10.23;;;;;;;;;;4245435;33;20046;-72
2023/04/20 05:41:03;;;;;;;17.42;9.32;;;;;;;;;;4247185;33;20038;-73
2023/04/20 05:43:30;;;;;;;17.40;9.48;;;;;;;;;;4252208;33;20485;-74
2023/04/20 05:45:56;;;;;;;17.15;9.80;;;;;;;;;;4265794;33;20049;-74
2023/04/20 05:48:22;;;;;;;17.20;9.80;;;;;;;;;;4263784;33;20041;-78
2023/04/20 05:50:48;;;;;;;15.13;9.18;;;;;;;;;;4266945;33;20130;-72
2023/04/20 05:53:14;;;;;;;15.85;8.95;;;;;;;;;;4267716;33;20037;-72
2023/04/20 05:55:40;;;;;;;13.05;8.05;;;;;;;;;;4267088;33;20077;-74
2023/04/20 05:58:06;;;;;;;19.35;8.93;;;;;;;;;;4265210;33;20050;-75
2023/04/20 06:00:32;;;;;;;15.07;8.50;;;;;;;;;;4263868;33;20341;-72
2023/04/20 06:03:00;;;;;;;14.57;9.13;;;;;;;;;;4236872;33;21753;-71
2023/04/20 06:05:25;;;;;;;16.50;9.50;;;;;;;;;;4235706;33;20084;-74
2023/04/20 06:07:52;;;;;;;18.55;9.13;;;;;;;;;;4234943;33;20059;-73
2023/04/20 06:10:18;;;;;;;15.43;8.40;;;;;;;;;;4233307;33;20058;-73
2023/04/20 06:12:44;;;;;;;21.73;9.43;;;;;;;;;;4232872;33;20120;-73
2023/04/20 06:15:10;;;;;;;15.27;8.88;;;;;;;;;;4234373;33;20043;-72
2023/04/20 06:17:40;;;;;;;15.63;9.02;;;;;;;;;;4233140;33;20517;-72
2023/04/20 06:20:07;;;;;;;13.00;7.65;;;;;;;;;;4235165;33;20072;-78
2023/04/20 06:22:34;;;;;;;16.08;9.00;;;;;;;;;;4235165;33;20038;-72
2023/04/20 06:25:00;;;;;;;13.43;7.28;;;;;;;;;;4222548;34;20102;-73
2023/04/20 06:27:26;;;;;;;11.07;7.70;;;;;;;;;;4208911;34;20035;-73
2023/04/20 06:29:53;;;;;;;12.32;7.65;;;;;;;;;;4207467;34;20059;-73
2023/04/20 06:32:19;;;;;;;15.80;7.18;;;;;;;;;;4200363;34;20092;-79
2023/04/20 06:34:46;;;;;;;14.10;6.70;;;;;;;;;;4204542;34;20081;-73
2023/04/20 06:37:13;;;;;;;18.42;6.50;;;;;;;;;;4207848;34;20035;-74
2023/04/20 06:39:45;;;;;;;13.05;7.35;;;;;;;;;;4207194;34;20359;-72
2023/04/20 06:42:12;;;;;;;15.68;7.50;;;;;;;;;;4207864;34;20452;-73
2023/04/20 06:44:39;;;;;;;14.73;7.72;;;;;;;;;;4206530;34;20268;-74
2023/04/20 06:47:06;;;;;;;13.93;7.12;;;;;;;;;;4208562;34;20173;-72
2023/04/20 06:49:32;;;;;;;11.98;6.00;;;;;;;;;;4208570;34;20039;-71
2023/04/20 06:51:59;;;;;;;13.62;7.00;;;;;;;;;;4209269;34;20082;-73
2023/04/20 06:54:25;;;;;;;12.93;6.68;;;;;;;;;;4205530;34;20036;-73
2023/04/20 06:56:51;;;;;;;10.43;5.78;;;;;;;;;;4208876;34;20909;-72
2023/04/20 06:59:18;;;;;;;13.15;6.93;;;;;;;;;;4208187;34;20053;-72
2023/04/20 07:01:44;;;;;;;12.95;7.18;;;;;;;;;;4221448;33;20454;-73
2023/04/20 07:04:10;;;;;;;12.65;6.85;;;;;;;;;;4230573;33;20042;-71
2023/04/20 07:06:37;;;;;;;12.25;7.18;;;;;;;;;;4265183;33;20046;-73
2023/04/20 07:09:03;;;;;;;14.87;7.95;;;;;;;;;;4264314;33;20058;-71
2023/04/20 07:11:30;;;;;;;12.43;7.43;;;;;;;;;;4249554;33;20105;-72
2023/04/20 07:13:56;;;;;;;10.52;5.90;;;;;;;;;;4248768;33;20465;-73
2023/04/20 07:16:22;;;;;;;12.23;6.55;;;;;;;;;;4250788;33;20049;-73
2023/04/20 07:18:48;;;;;;;11.50;8.10;;;;;;;;;;4248886;33;20208;-77
2023/04/20 07:21:15;;;;;;;16.67;6.70;;;;;;;;;;4247879;33;20491;-73
2023/04/20 07:23:41;;;;;;;22.05;6.97;;;;;;;;;;4249038;33;20055;-73
2023/04/20 07:26:07;;;;;;;14.23;6.30;;;;;;;;;;4250292;33;20058;-72
2023/04/20 07:28:34;;;;;;;11.32;6.55;;;;;;;;;;4249814;33;20064;-71
2023/04/20 07:31:00;;;;;;;11.40;6.80;;;;;;;;;;4252102;33;20173;-72
2023/04/20 07:33:28;;;;;;;9.32;5.68;;;;;;;;;;4256472;33;20221;-72
2023/04/20 07:35:55;;;;;;;12.25;5.87;;;;;;;;;;4258734;33;20505;-72
2023/04/20 07:38:20;;;;;;;7.25;5.00;;;;;;;;;;4258374;33;20042;-71
2023/04/20 07:40:47;;;;;;;9.95;7.00;;;;;;;;;;4225934;33;20038;-71
2023/04/20 07:43:13;;;;;;;10.23;5.45;;;;;;;;;;4222711;33;20133;-73
2023/04/20 07:45:40;;;;;;;8.63;5.70;;;;;;;;;;4224785;33;20249;-72
2023/04/20 07:48:08;;;;;;;7.93;5.75;;;;;;;;;;4225920;33;20804;-72
2023/04/20 07:50:34;;;;;;;9.65;5.35;;;;;;;;;;4223807;33;20083;-73
2023/04/20 07:53:01;;;;;;;10.63;5.70;;;;;;;;;;4223077;33;20053;-72
2023/04/20 07:55:27;;;;;;;8.38;5.37;;;;;;;;;;4211203;34;20589;-72
2023/04/20 07:57:53;;;;;;;14.48;4.90;;;;;;;;;;4209553;34;20042;-72
2023/04/20 08:00:20;;;;;;;9.43;4.32;;;;;;;;;;4220235;33;20058;-73
2023/04/20 08:02:46;;;;;;;17.08;5.70;;;;;;;;;;4221805;33;20453;-73
2023/04/20 08:05:12;;;;;;;8.63;3.75;;;;;;;;;;4223743;33;20089;-72
2023/04/20 08:07:38;;;;;;;17.08;4.05;;;;;;;;;;4233968;33;20030;-75
2023/04/20 08:10:05;;;;;;;5.53;3.62;;;;;;;;;;4244349;33;20074;-73
2023/04/20 08:12:31;;;;;;;10.52;3.53;;;;;;;;;;4260934;33;20667;-74
2023/04/20 08:15:00;;;;;;;8.68;3.92;;;;;;;;;;4256341;33;20102;-73
2023/04/20 08:17:27;;;;;;;6.15;3.72;;;;;;;;;;4259935;33;20075;-72
2023/04/20 08:19:53;;;;;;;14.38;3.45;;;;;;;;;;4256724;33;20055;-78
2023/04/20 08:22:19;;;;;;;9.55;4.15;;;;;;;;;;4258851;33;20674;-72
2023/04/20 08:24:46;;;;;;;10.50;4.45;;;;;;;;;;4255460;33;20105;-72
2023/04/20 08:27:12;;;;;;;10.07;3.47;;;;;;;;;;4257052;33;20033;-71
2023/04/20 08:29:38;;;;;;;19.52;4.65;;;;;;;;;;4259362;33;20060;-71
2023/04/20 08:32:07;;;;;;;20.20;4.10;;;;;;;;;;4257107;33;20105;-78
2023/04/20 08:34:34;;;;;;;17.15;3.92;;;;;;;;;;4254653;33;20453;-72
2023/04/20 08:37:00;;;;;;;14.82;4.00;;;;;;;;;;4254628;33;20026;-72
2023/04/20 08:39:27;;;;;;;13.07;3.12;;;;;;;;;;4255664;33;20049;-73
2023/04/20 08:41:54;;;;;;;11.00;3.90;;;;;;;;;;4238063;33;20128;-74
2023/04/20 08:44:21;;;;;;;12.40;3.67;;;;;;;;;;4248555;33;20455;-78
2023/04/20 08:46:47;;;;;;;18.20;3.83;;;;;;;;;;4238894;33;20047;-74
2023/04/20 08:49:20;;;;;;;19.08;4.32;;;;;;;;;;4235518;33;20506;-73
2023/04/20 08:51:47;;;;;;;10.27;4.55;;;;;;;;;;4236230;33;20072;-74
2023/04/20 08:54:14;;;;;;;14.68;4.03;;;;;;;;;;4236152;33;20051;-76
2023/04/20 08:56:42;;;;;;;18.15;3.70;;;;;;;;;;4249346;33;20033;-73
2023/04/20 08:59:13;;;;;;;17.10;3.78;;;;;;;;;;4252283;33;20076;-72
2023/04/20 09:01:42;;;;;;;16.48;3.80;;;;;;;;;;4251445;33;20577;-72
2023/04/20 09:04:14;;;;;;;15.70;4.90;;;;;;;;;;4251200;33;20457;-72
2023/04/20 09:06:49;;;;;;;22.13;3.78;;;;;;;;;;4250593;33;20064;-73
2023/04/20 09:09:15;;;;;;;15.95;4.62;;;;;;;;;;4236236;33;20046;-73
2023/04/20 09:11:41;;;;;;;9.98;3.87;;;;;;;;;;4238063;33;20068;-72
2023/04/20 09:14:11;;;;;;;18.45;4.30;;;;;;;;;;4237373;33;20070;-72
2023/04/20 09:16:38;;;;;;;20.33;5.20;;;;;;;;;;4235634;33;20080;-73
2023/04/20 09:19:05;;;;;;;12.23;3.83;;;;;;;;;;4237426;33;20316;-73
2023/04/20 09:21:31;;;;;;;20.10;4.72;;;;;;;;;;4237614;33;20043;-73
2023/04/20 09:24:01;;;;;;;11.50;3.78;;;;;;;;;;4237290;33;20387;-72
2023/04/20 09:26:30;;;;;;;15.88;4.68;;;;;;;;;;4236408;33;20450;-77
2023/04/20 09:28:56;;;;;;;20.45;4.60;;;;;;;;;;4223312;33;20077;-73
2023/04/20 09:31:22;;;;;;;18.10;4.55;;;;;;;;;;4223717;33;20461;-73
2023/04/20 09:33:58;;;;;;;16.20;3.53;;;;;;;;;;4223410;33;20104;-72
2023/04/20 09:36:34;;;;;;;21.08;5.20;;;;;;;;;;4237387;33;20409;-78
2023/04/20 09:39:02;;;;;;;18.42;4.82;;;;;;;;;;4237518;33;20519;-72
2023/04/20 09:41:29;;;;;;;25.00;4.43;;;;;;;;;;4251801;33;20046;-73
2023/04/20 09:43:56;;;;;;;21.55;3.72;;;;;;;;;;4251700;33;20076;-71
2023/04/20 09:46:23;;;;;;;17.75;4.37;;;;;;;;;;4256078;33;20067;-73
2023/04/20 09:48:49;;;;;;;13.10;3.70;;;;;;;;;;4263749;33;20106;-73
2023/04/20 09:51:16;;;;;;;14.48;4.35;;;;;;;;;;4277841;33;20046;-71
2023/04/20 09:53:44;;;;;;;18.83;4.53;;;;;;;;;;4265578;33;20063;-74
2023/04/20 09:56:10;;;;;;;14.85;4.53;;;;;;;;;;4265591;33;20108;-73
2023/04/20 09:58:37;;;;;;;22.77;4.30;;;;;;;;;;4263453;33;20529;-74
2023/04/20 10:01:03;;;;;;;15.10;4.65;;;;;;;;;;4264138;33;20050;-72
2023/04/20 10:03:30;;;;;;;24.05;4.47;;;;;;;;;;4266345;33;20047;-73
2023/04/20 10:05:56;;;;;;;12.63;4.65;;;;;;;;;;4265186;33;20093;-72
2023/04/20 10:08:23;;;;;;;16.33;3.92;;;;;;;;;;4240191;33;20493;-72
2023/04/20 10:10:50;;;;;;;13.05;3.90;;;;;;;;;;4236900;33;20047;-78
2023/04/20 10:13:20;;;;;;;9.43;4.05;;;;;;;;;;4238074;33;20047;-72
2023/04/20 10:15:46;;;;;;;33.35;6.07;;;;;;;;;;4239469;33;20026;-72
2023/04/20 10:18:19;;;;;;;17.10;4.60;;;;;;;;;;4224071;33;20156;-73
2023/04/20 10:20:45;;;;;;;26.65;4.40;;;;;;;;;;4235327;33;20042;-76
2023/04/20 10:23:14;;;;;;;15.88;3.87;;;;;;;;;;4225438;33;20093;-72
2023/04/20 10:25:41;;;;;;;15.63;3.17;;;;;;;;;;4235283;33;20397;-74
2023/04/20 10:28:09;;;;;;;10.73;3.12;;;;;;;;;;4238490;33;20042;-72
2023/04/20 10:30:36;;;;;;;10.35;4.05;;;;;;;;;;4238046;33;20068;-73
2023/04/20 10:33:04;;;;;;;18.73;2.72;;;;;;;;;;4238645;33;20042;-71
2023/04/20 10:35:40;;;;;;;8.40;2.95;;;;;;;;;;4240473;33;20030;-72
2023/04/20 10:38:06;;;;;;;15.68;3.40;;;;;;;;;;4241060;33;20070;-74
2023/04/20 10:40:32;;;;;;;18.05;4.68;;;;;;;;;;4240312;33;20052;-73
2023/04/20 10:42:58;;;;;;;14.70;3.92;;;;;;;;;;4239798;33;20131;-73
2023/04/20 10:45:35;;;;;;;27.73;5.07;;;;;;;;;;4250293;33;20065;-72
2023/04/20 10:48:10;;;;;;;10.73;3.00;;;;;;;;;;4280197;33;20049;-71
2023/04/20 10:50:37;;;;;;;16.10;4.82;;;;;;;;;;4278371;33;20041;-71
2023/04/20 10:53:04;;;;;;;15.70;2.95;;;;;;;;;;4279898;33;20519;-71
2023/04/20 10:55:30;;;;;;;20.20;4.30;;;;;;;;;;4279099;33;20041;-72
2023/04/20 10:57:56;;;;;;;20.02;2.83;;;;;;;;;;4263734;33;20334;-71
2023/04/20 11:03:20;;;;;;;19.77;2.95;;;;;;;;;;4245822;33;20364;-72
2023/04/20 11:05:48;;;;;;;19.48;3.60;;;;;;;;;;4238764;33;20392;-71
2023/04/20 11:08:14;;;;;;;16.52;2.70;;;;;;;;;;4239980;33;20057;-71
2023/04/20 11:10:41;;;;;;;12.75;3.33;;;;;;;;;;4239320;33;20050;-72
2023/04/20 11:13:24;;;;;;;16.62;3.45;;;;;;;;;;4240003;33;20453;-72
2023/04/20 11:15:50;;;;;;;14.40;2.97;;;;;;;;;;4239112;33;20050;-72
2023/04/20 11:18:17;;;;;;;18.90;2.67;;;;;;;;;;4239454;33;20406;-72
2023/04/20 11:20:53;;;;;;;15.88;2.60;;;;;;;;;;4239560;33;20164;-71
2023/04/20 11:23:20;;;;;;;20.92;3.22;;;;;;;;;;4238964;33;20492;-78
2023/04/20 11:25:48;;;;;;;10.95;3.80;;;;;;;;;;4238709;33;20463;-72
2023/04/20 11:28:14;;;;;;;22.10;3.37;;;;;;;;;;4240949;33;20076;-71
2023/04/20 11:30:40;;;;;;;23.95;4.18;;;;;;;;;;4255536;33;20037;-71
2023/04/20 11:33:06;;;;;;;15.25;2.90;;;;;;;;;;4255920;33;20042;-72
2023/04/20 11:35:37;;;;;;;14.15;2.78;;;;;;;;;;4252645;33;20088;-77
2023/04/20 11:38:03;;;;;;;13.60;2.67;;;;;;;;;;4255954;33;20192;-71
2023/04/20 11:40:29;;;;;;;15.13;3.50;;;;;;;;;;4255907;33;20407;-72
2023/04/20 11:42:56;;;;;;;21.60;3.50;;;;;;;;;;4255612;33;20106;-73
2023/04/20 11:45:22;;;;;;;22.87;3.90;;;;;;;;;;4252658;33;20120;-73
2023/04/20 11:47:49;;;;;;;28.83;3.35;;;;;;;;;;4250692;33;20042;-72
2023/04/20 11:50:15;;;;;;;20.02;3.55;;;;;;;;;;4253155;33;20483;-72
2023/04/20 11:52:42;;;;;;;28.55;4.07;;;;;;;;;;4251290;33;20030;-71
2023/04/20 11:55:10;;;;;;;28.30;3.92;;;;;;;;;;4252424;33;20076;-72
2023/04/20 11:57:36;;;;;;;23.75;3.35;;;;;;;;;;4252096;33;20033;-77
2023/04/20 12:00:03;;;;;;;19.27;2.97;;;;;;;;;;4249217;33;20053;-72
2023/04/20 12:02:39;;;;;;;19.83;3.67;;;;;;;;;;4249648;33;20047;-72
2023/04/20 12:05:07;;;;;;;16.12;2.85;;;;;;;;;;4252292;33;20109;-72
2023/04/20 12:07:33;;;;;;;20.23;3.10;;;;;;;;;;4251220;33;20143;-72
2023/04/20 12:09:59;;;;;;;30.95;3.70;;;;;;;;;;4234538;33;20100;-77
2023/04/20 12:12:25;;;;;;;28.35;3.65;;;;;;;;;;4222448;34;20302;-72
2023/04/20 12:14:51;;;;;;;12.23;3.47;;;;;;;;;;4222508;33;20080;-72
2023/04/20 12:17:17;;;;;;;12.63;4.22;;;;;;;;;;4251846;33;20432;-72
2023/04/20 12:19:44;;;;;;;17.55;2.80;;;;;;;;;;4251192;33;20053;-71
2023/04/20 12:22:10;;;;;;;19.42;3.78;;;;;;;;;;4250343;33;20043;-78
2023/04/20 12:24:36;;;;;;;19.90;3.55;;;;;;;;;;4250950;33;20325;-72
2023/04/20 12:27:04;;;;;;;25.30;3.53;;;;;;;;;;4227897;33;20114;-72
2023/04/20 12:29:31;;;;;;;21.73;4.18;;;;;;;;;;4237334;33;20085;-73
2023/04/20 12:31:58;;;;;;;24.40;3.67;;;;;;;;;;4237100;33;20390;-74
2023/04/20 12:34:25;;;;;;;23.87;3.12;;;;;;;;;;4235334;33;20429;-73
2023/04/20 12:36:51;;;;;;;30.50;4.05;;;;;;;;;;4235588;33;20042;-71
2023/04/20 12:39:18;;;;;;;35.33;4.10;;;;;;;;;;4236029;33;20469;-72
2023/04/20 12:41:44;;;;;;;27.00;3.70;;;;;;;;;;4236410;33;20039;-72
2023/04/20 12:44:12;;;;;;;13.98;2.60;;;;;;;;;;4249349;33;20045;-72
2023/04/20 12:46:37;;;;;;;20.85;2.87;;;;;;;;;;4249119;33;20068;-74
2023/04/20 12:49:04;;;;;;;30.12;4.22;;;;;;;;;;4240203;33;20055;-72
2023/04/20 12:51:30;;;;;;;8.43;2.67;;;;;;;;;;4236172;33;20088;-72
2023/04/20 12:53:57;;;;;;;14.48;2.83;;;;;;;;;;4233981;33;20682;-74
2023/04/20 12:56:23;;;;;;;24.12;3.35;;;;;;;;;;4233038;33;20077;-73
2023/04/20 12:58:49;;;;;;;10.15;3.47;;;;;;;;;;4235004;33;20059;-73
2023/04/20 13:01:15;;;;;;;25.73;3.12;;;;;;;;;;4234362;33;20357;-73
2023/04/20 13:03:41;;;;;;;29.73;5.12;;;;;;;;;;4234602;33;20169;-71
2023/04/20 13:06:09;;;;;;;19.73;3.47;;;;;;;;;;4232060;33;20068;-71
2023/04/20 13:08:36;;;;;;;26.90;3.47;;;;;;;;;;4233158;33;20520;-76
2023/04/20 13:11:02;;;;;;;16.17;2.87;;;;;;;;;;4234139;33;20065;-71
2023/04/20 13:13:29;;;;;;;22.10;2.90;;;;;;;;;;4249007;33;20064;-71
2023/04/20 13:15:54;;;;;;;20.80;3.50;;;;;;;;;;4240765;33;20054;-72
2023/04/20 13:18:23;;;;;;;20.70;3.35;;;;;;;;;;4242168;33;20194;-72
2023/04/20 13:20:49;;;;;;;11.73;2.85;;;;;;;;;;4238026;33;20072;-75
2023/04/20 13:23:15;;;;;;;14.87;3.22;;;;;;;;;;4238381;33;20220;-74
2023/04/20 13:25:41;;;;;;;11.35;2.92;;;;;;;;;;4239157;33;20041;-73
2023/04/20 13:28:08;;;;;;;24.00;4.22;;;;;;;;;;4240927;33;20187;-72
2023/04/20 13:30:33;;;;;;;29.08;4.68;;;;;;;;;;4240881;33;20501;-72
2023/04/20 13:33:00;;;;;;;24.73;8.57;;;;;;;;;;4236410;33;20049;-73
2023/04/20 13:35:26;;;;;;;15.15;4.68;;;;;;;;;;4239792;33;20155;-74
2023/04/20 13:37:52;;;;;;;13.23;2.72;;;;;;;;;;4239627;33;20132;-74
2023/04/20 13:40:19;;;;;;;12.07;4.10;;;;;;;;;;4236453;33;20137;-72
2023/04/20 13:42:45;;;;;;;16.90;2.87;;;;;;;;;;4241860;33;20063;-73
2023/04/20 13:45:13;;;;;;;13.43;3.40;;;;;;;;;;4235620;33;20116;-76
2023/04/20 13:47:39;;;;;;;15.63;3.30;;;;;;;;;;4235434;33;20180;-73
2023/04/20 13:50:06;;;;;;;14.65;3.53;;;;;;;;;;4240652;33;20161;-75
2023/04/20 13:52:32;;;;;;;20.48;3.58;;;;;;;;;;4242580;33;20071;-74
2023/04/20 13:55:05;;;;;;;25.83;3.08;;;;;;;;;;4248590;33;20045;-79
2023/04/20 13:57:31;;;;;;;14.52;3.00;;;;;;;;;;4246315;33;20094;-74
2023/04/20 14:00:00;;;;;;;18.40;3.40;;;;;;;;;;4249960;33;20094;-74
2023/04/20 14:02:27;;;;;;;7.60;2.22;;;;;;;;;;4250399;33;20058;-74
2023/04/20 14:04:53;;;;;;;22.77;3.33;;;;;;;;;;4248705;33;20117;-73
2023/04/20 14:07:19;;;;;;;8.85;2.90;;;;;;;;;;4248593;33;20350;-73
2023/04/20 14:09:45;;;;;;;14.13;2.72;;;;;;;;;;4250059;33;20077;-72
2023/04/20 14:12:12;;;;;;;16.62;2.78;;;;;;;;;;4251641;33;20112;-72
2023/04/20 14:14:38;;;;;;;19.40;4.00;;;;;;;;;;4251597;33;20131;-73
2023/04/20 14:17:04;;;;;;;12.23;3.60;;;;;;;;;;4253628;33;20127;-76
2023/04/20 14:19:31;;;;;;;13.25;2.72;;;;;;;;;;4252206;33;20054;-73
2023/04/20 14:21:57;;;;;;;13.88;2.92;;;;;;;;;;4255010;33;20083;-73
2023/04/20 14:24:23;;;;;;;22.05;3.08;;;;;;;;;;4234306;33;20074;-72
2023/04/20 14:26:50;;;;;;;14.82;2.50;;;;;;;;;;4236786;33;20046;-72
2023/04/20 14:29:16;;;;;;;9.88;3.22;;;;;;;;;;4236216;33;20035;-71
2023/04/20 14:31:42;;;;;;;7.32;3.50;;;;;;;;;;4235071;33;20090;-76
2023/04/20 14:34:09;;;;;;;11.05;2.95;;;;;;;;;;4237531;33;20054;-72
2023/04/20 14:36:35;;;;;;;12.45;2.62;;;;;;;;;;4237857;33;20166;-72
2023/04/20 14:39:01;;;;;;;14.05;2.62;;;;;;;;;;4235820;33;20061;-72
2023/04/20 14:41:27;;;;;;;14.75;3.05;;;;;;;;;;4235956;33;20053;-73
2023/04/20 14:43:53;;;;;;;15.82;2.42;;;;;;;;;;4233654;33;20433;-76
2023/04/20 14:46:20;;;;;;;25.23;2.60;;;;;;;;;;4234986;33;20809;-72
2023/04/20 14:48:47;;;;;;;22.50;3.45;;;;;;;;;;4236322;33;20038;-72
2023/04/20 14:51:13;;;;;;;15.13;2.78;;;;;;;;;;4235572;33;20136;-72
2023/04/20 14:53:39;;;;;;;10.32;2.30;;;;;;;;;;4235537;33;20084;-72
2023/04/20 14:56:05;;;;;;;10.18;2.20;;;;;;;;;;4246863;33;20043;-76
2023/04/20 14:58:31;;;;;;;22.27;1.95;;;;;;;;;;4251988;33;20292;-72
2023/04/20 15:00:58;;;;;;;14.18;2.33;;;;;;;;;;4262139;33;20440;-72
2023/04/20 15:03:24;;;;;;;15.02;2.47;;;;;;;;;;4251239;33;20442;-71
2023/04/20 15:05:50;;;;;;;10.48;2.62;;;;;;;;;;4246271;33;20133;-73
2023/04/20 15:08:16;;;;;;;15.02;2.80;;;;;;;;;;4231045;33;20027;-78
2023/04/20 15:10:43;;;;;;;16.70;3.20;;;;;;;;;;4234059;33;20112;-72
2023/04/20 15:13:10;;;;;;;6.35;1.75;;;;;;;;;;4235875;33;20038;-72
2023/04/20 15:15:36;;;;;;;9.57;2.42;;;;;;;;;;4234113;33;20072;-72
2023/04/20 15:18:02;;;;;;;4.80;2.30;;;;;;;;;;4225162;33;20035;-77
2023/04/20 15:20:29;;;;;;;13.80;2.50;;;;;;;;;;4223510;33;20064;-73
2023/04/20 15:22:54;;;;;;;8.82;2.10;;;;;;;;;;4225128;33;20385;-71
2023/04/20 15:25:28;;;;;;;12.65;3.30;;;;;;;;;;4223445;33;20237;-71
2023/04/20 15:27:53;;;;;;;7.85;1.95;;;;;;;;;;4221673;33;20132;-71
2023/04/20 15:30:20;;;;;;;5.87;2.37;;;;;;;;;;4222546;33;20091;-72
2023/04/20 15:32:46;;;;;;;14.80;2.40;;;;;;;;;;4214283;33;20219;-73
2023/04/20 15:35:13;;;;;;;9.55;2.65;;;;;;;;;;4222905;33;20073;-72
2023/04/20 15:37:39;;;;;;;14.38;3.40;;;;;;;;;;4221651;33;20097;-72
2023/04/20 15:40:06;;;;;;;9.00;3.25;;;;;;;;;;4226544;33;20035;-71
2023/04/20 15:42:32;;;;;;;9.52;2.30;;;;;;;;;;4226730;33;20451;-75
2023/04/20 15:44:58;;;;;;;10.25;2.72;;;;;;;;;;4228625;33;20082;-72
2023/04/20 15:47:24;;;;;;;22.10;2.50;;;;;;;;;;4224565;33;20447;-72
2023/04/20 15:49:51;;;;;;;12.77;3.17;;;;;;;;;;4247100;33;20390;-72
2023/04/20 15:52:17;;;;;;;6.32;2.80;;;;;;;;;;4251474;33;20030;-72
2023/04/20 15:54:45;;;;;;;21.40;2.97;;;;;;;;;;4250481;33;20113;-74
2023/04/20 15:57:11;;;;;;;25.00;4.97;;;;;;;;;;4247909;33;20052;-72
2023/04/20 15:59:37;;;;;;;10.95;3.12;;;;;;;;;;4250514;33;20058;-72
2023/04/20 16:02:04;;;;;;;15.77;3.12;;;;;;;;;;4251238;33;20069;-73
2023/04/20 16:04:30;;;;;;;21.62;2.90;;;;;;;;;;4249019;33;20461;-72
2023/04/20 16:06:56;;;;;;;18.20;3.08;;;;;;;;;;4250940;33;20039;-72
2023/04/20 16:09:23;;;;;;;14.43;2.95;;;;;;;;;;4248358;33;20119;-73
2023/04/20 16:11:49;;;;;;;5.00;2.10;;;;;;;;;;4250811;33;20136;-72
2023/04/20 16:14:15;;;;;;;7.32;3.05;;;;;;;;;;4250211;33;20355;-72
2023/04/20 16:16:41;;;;;;;6.47;2.60;;;;;;;;;;4251339;33;20060;-72
2023/04/20 16:19:07;;;;;;;9.32;2.12;;;;;;;;;;4248461;33;20049;-77
2023/04/20 16:21:33;;;;;;;5.53;2.47;;;;;;;;;;4226548;33;20184;-72
2023/04/20 16:24:00;;;;;;;5.45;2.78;;;;;;;;;;4187462;34;20125;-74
2023/04/20 16:26:26;;;;;;;12.13;2.75;;;;;;;;;;4189924;34;20035;-72
2023/04/20 16:28:53;;;;;;;20.90;3.47;;;;;;;;;;4175781;34;20117;-73